Terminal Aerodrome Forecast
Issued by NWS Nashville, TN

Home | Current Version | Previous Version | Text Only | Print | Product List | Glossary On
Versions: 1 2 3 4 5 6 7 8 9 10 11 12 13 14 15 16
927
FTUS44 KOHX 082325
TAFBNA
TAF
KBNA 082325Z 0900/0924 29009KT 5SM -SN BR BKN015 OVC025
      TEMPO 0900/0904 2SM -SN BR BKN009 OVC015
     FM091100 30008G18KT 3SM -SN BR OVC025=

USA.gov is the U.S. government's official web portal to all federal, state and local government web resources and services.